Time;durP1;ratioP1;P1;durP2;ratioP2;P2;SDS_P1;SDS_P2;PMS_P1;PMS_P2;Temp;Humidity;BMP_temperature;BMP_pressure;BME280_temperature;BME280_humidity;BME280_pressure;Samples;Min_cycle;Max_cycle;Signal;HPM_P1;HPM_P2
2023/05/24 00:03:25;;;;;;;;;;;20.50;58.80;;;;;;8394504;28;20048;-44
2023/05/24 00:07:25;;;;;;;13.37;6.97;;;20.50;58.80;;;;;;8394019;28;19912;-45
2023/05/24 00:11:26;;;;;;;12.95;6.50;;;20.50;58.80;;;;;;8394096;28;20077;-45
2023/05/24 00:15:27;;;;;;;11.80;6.28;;;20.50;58.80;;;;;;8393814;28;20038;-45
2023/05/24 00:19:28;;;;;;;14.07;7.00;;;20.50;58.90;;;;;;8393778;28;20112;-45
2023/05/24 00:23:28;;;;;;;12.10;6.03;;;20.50;58.90;;;;;;8394096;28;20040;-45
2023/05/24 00:27:29;;;;;;;12.13;6.23;;;20.40;58.90;;;;;;8393577;28;20039;-45
2023/05/24 00:31:30;;;;;;;10.27;6.35;;;20.40;58.90;;;;;;8393400;28;20760;-45
2023/05/24 00:35:30;;;;;;;11.73;6.05;;;20.40;58.90;;;;;;8393261;28;20524;-45
2023/05/24 00:39:31;;;;;;;11.10;6.18;;;20.40;59.00;;;;;;8392961;28;20500;-45
2023/05/24 00:43:32;;;;;;;10.55;5.90;;;20.40;59.00;;;;;;8393035;28;20478;-45
2023/05/24 00:47:33;;;;;;;12.80;6.53;;;20.40;59.00;;;;;;8393070;28;20513;-46
2023/05/24 00:51:35;;;;;;;12.32;6.75;;;20.30;59.00;;;;;;8392995;28;20089;-45
2023/05/24 00:55:36;;;;;;;11.02;6.15;;;20.30;58.90;;;;;;8393731;28;20476;-45
2023/05/24 00:59:36;;;;;;;9.95;5.95;;;20.30;58.90;;;;;;8392820;28;20370;-45
2023/05/24 01:03:38;;;;;;;8.90;5.10;;;20.30;58.90;;;;;;8392642;28;20076;-45
2023/05/24 01:07:57;;;;;;;;;;;20.40;59.00;;;;;;8393625;28;20031;-44
2023/05/24 01:12:07;;;;;;;9.85;5.75;;;20.30;58.90;;;;;;8392666;28;20003;-45
2023/05/24 01:16:16;;;;;;;7.95;4.70;;;20.30;59.40;;;;;;8392560;28;20543;-45
2023/05/24 01:20:21;;;;;;;12.02;6.07;;;20.30;58.90;;;;;;8392644;28;20025;-45
2023/05/24 01:24:41;;;;;;;10.55;5.63;;;20.30;58.90;;;;;;8393354;28;20082;-45
2023/05/24 01:28:43;;;;;;;8.88;5.05;;;20.30;58.90;;;;;;8392704;28;20056;-44
2023/05/24 01:32:43;;;;;;;9.27;5.75;;;20.30;58.90;;;;;;8392535;28;20427;-45
2023/05/24 01:36:44;;;;;;;9.90;5.53;;;20.30;58.90;;;;;;8392343;28;20036;-45
2023/05/24 01:40:49;;;;;;;8.55;5.13;;;20.30;58.90;;;;;;8392343;28;20033;-45
2023/05/24 01:45:27;;;;;;;9.93;5.30;;;20.30;58.90;;;;;;8391965;28;20039;-44
2023/05/24 01:49:33;;;;;;;9.40;5.22;;;20.30;58.90;;;;;;8392228;28;20059;-45
2023/05/24 01:53:39;;;;;;;6.72;4.53;;;20.30;58.80;;;;;;8398799;28;20481;-45
2023/05/24 01:57:43;;;;;;;8.52;5.50;;;20.30;58.90;;;;;;8397927;28;20115;-45
2023/05/24 02:01:45;;;;;;;7.10;5.10;;;20.30;58.80;;;;;;8398096;28;20112;-45
2023/05/24 02:05:46;;;;;;;7.30;4.82;;;20.30;58.80;;;;;;8397648;28;20048;-45
2023/05/24 02:09:46;;;;;;;8.52;4.80;;;20.30;58.80;;;;;;8397623;28;20028;-44
2023/05/24 02:13:47;;;;;;;7.63;4.33;;;20.30;58.80;;;;;;8396560;28;20041;-45
2023/05/24 02:17:48;;;;;;;6.43;4.25;;;20.30;58.80;;;;;;8397394;28;20787;-46
2023/05/24 02:21:48;;;;;;;8.38;4.55;;;20.30;58.80;;;;;;8398070;28;20028;-44
2023/05/24 02:25:49;;;;;;;7.63;4.65;;;20.30;58.80;;;;;;8397510;28;20115;-44
2023/05/24 02:29:51;;;;;;;7.78;4.85;;;20.30;58.80;;;;;;8397785;28;20025;-44
2023/05/24 02:33:52;;;;;;;7.35;4.70;;;20.30;58.80;;;;;;8397838;28;20559;-44
2023/05/24 02:37:52;;;;;;;7.97;4.77;;;20.30;58.80;;;;;;8397624;28;20398;-44
2023/05/24 02:41:53;;;;;;;7.00;5.27;;;20.30;58.80;;;;;;8396913;28;20033;-45
2023/05/24 02:45:54;;;;;;;7.28;4.80;;;20.30;58.80;;;;;;8397012;28;20343;-45
2023/05/24 02:49:55;;;;;;;6.68;4.63;;;20.20;58.70;;;;;;8396930;28;20029;-44
2023/05/24 02:53:55;;;;;;;8.52;5.10;;;20.20;58.80;;;;;;8397278;28;20047;-44
2023/05/24 02:57:56;;;;;;;6.75;4.60;;;20.20;58.80;;;;;;8396509;28;20036;-45
2023/05/24 03:01:57;;;;;;;6.22;4.18;;;20.20;58.80;;;;;;8396385;28;20056;-44
2023/05/24 03:05:57;;;;;;;8.43;5.50;;;20.20;58.80;;;;;;8395762;28;20056;-45
2023/05/24 03:09:58;;;;;;;6.33;4.60;;;20.20;58.80;;;;;;8396084;28;20274;-44
2023/05/24 03:13:59;;;;;;;5.35;4.05;;;20.20;58.80;;;;;;8395821;28;20286;-45
2023/05/24 03:17:59;;;;;;;7.30;4.20;;;20.20;58.80;;;;;;8396045;28;20486;-44
2023/05/24 03:22:00;;;;;;;8.70;4.30;;;20.20;58.80;;;;;;8398087;28;20158;-46
2023/05/24 03:26:01;;;;;;;5.83;4.17;;;20.20;58.80;;;;;;8428987;28;20423;-45
2023/05/24 03:30:02;;;;;;;6.53;4.45;;;20.20;58.80;;;;;;8428906;28;20286;-44
2023/05/24 03:34:02;;;;;;;;;;;20.20;58.80;;;;;;8429302;28;20038;-45
2023/05/24 03:38:03;;;;;;;4.87;3.90;;;20.20;58.80;;;;;;8428663;28;20373;-45
2023/05/24 03:42:04;;;;;;;6.90;4.63;;;20.20;58.80;;;;;;8428546;28;20036;-45
2023/05/24 03:46:04;;;;;;;7.25;4.38;;;20.20;58.70;;;;;;8428092;28;20347;-45
2023/05/24 03:50:06;;;;;;;5.53;4.05;;;20.20;58.70;;;;;;8428351;28;20117;-44
2023/05/24 03:54:06;;;;;;;7.15;5.22;;;20.20;58.70;;;;;;8408869;28;20036;-45
2023/05/24 03:58:07;;;;;;;6.27;4.03;;;20.20;58.70;;;;;;8394276;28;20043;-45
2023/05/24 04:02:08;;;;;;;6.28;3.90;;;20.20;58.70;;;;;;8394182;28;20779;-45
2023/05/24 04:06:08;;;;;;;6.40;4.28;;;20.20;59.20;;;;;;8394019;28;20040;-44
2023/05/24 04:10:09;;;;;;;5.97;4.33;;;20.20;58.70;;;;;;8394150;28;20064;-44
2023/05/24 04:14:10;;;;;;;5.25;4.00;;;20.30;58.70;;;;;;8393461;28;20294;-44
2023/05/24 04:18:11;;;;;;;5.97;3.83;;;20.30;58.50;;;;;;8393779;28;20085;-45
2023/05/24 04:22:12;;;;;;;5.40;3.72;;;20.40;58.40;;;;;;8394177;28;20065;-45
2023/05/24 04:26:14;;;;;;;5.78;3.95;;;20.40;58.20;;;;;;8393449;28;20503;-44
2023/05/24 04:30:15;;;;;;;6.05;3.65;;;20.40;58.10;;;;;;8393296;28;20036;-44
2023/05/24 04:34:16;;;;;;;4.93;3.58;;;20.50;58.10;;;;;;8393365;28;20052;-45
2023/05/24 04:38:18;;;;;;;6.20;3.90;;;20.50;58.00;;;;;;8393940;28;20068;-44
2023/05/24 04:42:18;;;;;;;6.20;4.00;;;20.50;58.00;;;;;;8393268;28;20477;-44
2023/05/24 04:46:19;;;;;;;5.40;3.50;;;20.40;58.00;;;;;;8393277;28;20432;-45
2023/05/24 04:50:20;;;;;;;5.22;3.85;;;20.40;58.00;;;;;;8393242;28;20481;-45
2023/05/24 04:54:20;;;;;;;4.73;3.63;;;20.40;57.90;;;;;;8393980;28;20239;-44
2023/05/24 04:58:21;;;;;;;5.78;3.92;;;20.40;58.00;;;;;;8393030;28;20278;-44
2023/05/24 05:02:22;;;;;;;4.70;3.05;;;20.40;58.00;;;;;;8392998;28;20120;-44
2023/05/24 05:06:23;;;;;;;4.43;3.28;;;20.40;57.90;;;;;;8392695;28;20401;-45
2023/05/24 05:10:25;;;;;;;5.20;3.22;;;20.50;57.90;;;;;;8392880;28;20617;-45
2023/05/24 05:14:25;;;;;;;;;;;20.50;57.90;;;;;;8393200;28;20482;-45
2023/05/24 05:18:26;;;;;;;4.67;3.63;;;20.50;57.90;;;;;;8392588;28;20379;-45
2023/05/24 05:22:26;;;;;;;4.90;3.67;;;20.50;57.90;;;;;;8393260;28;20037;-44
2023/05/24 05:26:28;;;;;;;5.18;3.30;;;20.40;57.90;;;;;;8395600;28;20115;-45
2023/05/24 05:30:28;;;;;;;;;;;20.50;57.90;;;;;;8399626;28;20068;-44
2023/05/24 05:34:29;;;;;;;4.23;3.37;;;20.40;57.90;;;;;;8397754;28;19909;-45
2023/05/24 05:38:29;;;;;;;4.55;2.95;;;20.40;57.90;;;;;;8397784;28;20035;-45
2023/05/24 05:42:30;;;;;;;5.07;3.27;;;20.40;58.00;;;;;;8398809;28;20029;-44
2023/05/24 05:46:30;;;;;;;4.83;3.17;;;20.40;58.00;;;;;;8398466;28;20812;-45
2023/05/24 05:50:31;;;;;;;6.70;3.90;;;20.40;57.90;;;;;;8398801;28;20270;-45
2023/05/24 05:54:32;;;;;;;4.88;3.00;;;20.40;57.90;;;;;;8399121;28;20037;-46
2023/05/24 05:58:32;;;;;;;4.10;3.00;;;20.40;58.00;;;;;;8396906;28;20040;-46
2023/05/24 06:02:33;;;;;;;6.75;3.22;;;20.40;58.00;;;;;;8398267;28;20390;-45
2023/05/24 06:06:34;;;;;;;4.53;2.93;;;20.40;58.00;;;;;;8397962;28;20056;-45
2023/05/24 06:10:34;;;;;;;4.87;3.20;;;20.30;58.10;;;;;;8398023;28;20507;-45
2023/05/24 06:14:37;;;;;;;5.03;3.22;;;20.30;58.10;;;;;;8397827;28;20329;-45
2023/05/24 06:18:37;;;;;;;5.80;3.35;;;20.30;58.20;;;;;;8397715;28;20051;-45
2023/05/24 06:22:38;;;;;;;3.63;2.53;;;20.30;58.10;;;;;;8396884;28;20036;-45
2023/05/24 06:26:39;;;;;;;4.15;3.15;;;20.30;58.10;;;;;;8398040;28;20688;-45
2023/05/24 06:30:40;;;;;;;;;;;20.30;58.30;;;;;;8397703;28;20024;-44
2023/05/24 06:34:42;;;;;;;4.77;3.33;;;20.30;58.20;;;;;;8397264;28;19927;-45
2023/05/24 06:38:42;;;;;;;5.10;3.10;;;20.30;58.20;;;;;;8396757;28;20036;-44
2023/05/24 06:42:43;;;;;;;5.17;3.23;;;20.30;58.30;;;;;;8396938;28;20032;-45
2023/05/24 06:46:44;;;;;;;3.73;2.80;;;20.30;58.20;;;;;;8396841;28;20297;-45
2023/05/24 06:50:45;;;;;;;4.68;3.15;;;20.30;58.10;;;;;;8395611;28;20312;-45
2023/05/24 06:54:45;;;;;;;5.57;3.60;;;20.40;58.10;;;;;;8397209;28;20063;-45
2023/05/24 06:58:46;;;;;;;4.07;2.90;;;20.40;58.00;;;;;;8396682;28;20040;-44
2023/05/24 07:02:47;;;;;;;4.15;2.85;;;20.40;57.90;;;;;;8396390;28;20290;-45
2023/05/24 07:06:47;;;;;;;3.80;3.10;;;20.40;57.80;;;;;;8396226;28;20044;-44
2023/05/24 07:10:48;;;;;;;4.27;2.80;;;20.40;57.80;;;;;;8396146;28;20278;-45
2023/05/24 07:14:49;;;;;;;3.88;3.22;;;20.50;57.80;;;;;;8396113;28;20287;-45
2023/05/24 07:18:49;;;;;;;3.35;2.78;;;20.50;57.70;;;;;;8394570;28;20090;-45
2023/05/24 07:22:51;;;;;;;3.80;3.10;;;20.50;58.30;;;;;;8396375;28;20036;-44
2023/05/24 07:26:56;;;;;;;;;;;20.50;57.80;;;;;;8395997;28;20040;-45
2023/05/24 07:30:57;;;;;;;3.88;2.78;;;20.40;57.80;;;;;;8395300;28;19987;-46
2023/05/24 07:34:57;;;;;;;4.10;2.80;;;20.40;57.80;;;;;;8395310;28;20046;-45
2023/05/24 07:39:02;;;;;;;3.22;2.50;;;20.40;57.80;;;;;;8395266;28;20115;-44
2023/05/24 07:43:03;;;;;;;4.68;2.97;;;20.40;57.90;;;;;;8394878;28;20040;-44
2023/05/24 07:47:04;;;;;;;2.80;2.50;;;20.40;57.80;;;;;;8394875;28;20064;-45
2023/05/24 07:51:05;;;;;;;4.80;2.92;;;20.40;57.90;;;;;;8393990;28;20028;-45
2023/05/24 07:55:06;;;;;;;2.97;2.55;;;20.40;57.90;;;;;;8395200;28;20544;-45
2023/05/24 07:59:07;;;;;;;2.88;2.20;;;20.30;57.90;;;;;;8394367;28;20479;-45
2023/05/24 08:03:07;;;;;;;2.33;2.13;;;20.30;58.00;;;;;;8393969;28;20056;-44
2023/05/24 08:07:08;;;;;;;5.50;2.80;;;20.30;58.00;;;;;;8393172;28;20104;-45
2023/05/24 08:11:09;;;;;;;3.30;2.53;;;20.30;58.00;;;;;;8394156;28;20064;-46
2023/05/24 08:15:10;;;;;;;3.90;2.92;;;20.30;58.00;;;;;;8394199;28;20032;-45
2023/05/24 08:19:10;;;;;;;5.05;2.60;;;20.30;58.00;;;;;;8394012;28;20032;-44
2023/05/24 08:23:11;;;;;;;3.42;2.45;;;20.30;58.00;;;;;;8394387;28;20051;-44
2023/05/24 08:27:12;;;;;;;3.08;2.65;;;20.30;58.10;;;;;;8393791;28;20040;-44
2023/05/24 08:31:13;;;;;;;3.10;2.45;;;20.30;58.10;;;;;;8393822;28;20031;-45
2023/05/24 08:35:14;;;;;;;3.03;2.10;;;20.30;58.00;;;;;;8393390;28;20044;-45
2023/05/24 08:39:15;;;;;;;3.45;2.60;;;20.40;58.50;;;;;;8393615;28;20105;-45
2023/05/24 08:43:16;;;;;;;4.05;2.90;;;20.40;57.80;;;;;;8393682;28;20557;-45
2023/05/24 08:47:18;;;;;;;;;;;20.40;57.70;;;;;;8393650;28;20466;-44
2023/05/24 08:51:19;;;;;;;3.33;2.63;;;20.50;57.60;;;;;;8393345;28;19904;-45
2023/05/24 08:55:20;;;;;;;3.33;2.55;;;20.50;57.60;;;;;;8392515;28;20085;-44
2023/05/24 08:59:23;;;;;;;4.22;2.20;;;20.40;57.60;;;;;;8392868;28;20428;-44
2023/05/24 09:03:25;;;;;;;2.80;2.38;;;20.40;57.60;;;;;;8399059;28;20052;-45
2023/05/24 09:07:26;;;;;;;2.67;2.35;;;20.40;57.60;;;;;;8426376;28;20056;-45
2023/05/24 09:11:27;;;;;;;;;;;20.40;57.70;;;;;;8426938;28;20030;-44
2023/05/24 09:15:28;;;;;;;3.00;2.30;;;20.40;57.70;;;;;;8441641;28;19908;-45
2023/05/24 09:19:29;;;;;;;3.03;2.50;;;20.30;57.80;;;;;;8426301;28;20278;-44
2023/05/24 09:23:29;;;;;;;2.45;1.92;;;20.40;57.80;;;;;;8426172;28;20036;-45
2023/05/24 09:27:34;;;;;;;2.97;2.75;;;20.40;57.90;;;;;;8407744;28;20036;-45
2023/05/24 09:31:38;;;;;;;3.33;2.33;;;20.30;57.80;;;;;;8426076;28;20043;-45
2023/05/24 09:35:42;;;;;;;3.40;2.10;;;20.30;57.90;;;;;;8425481;28;20024;-45
2023/05/24 09:39:49;;;;;;;2.67;2.13;;;20.30;57.90;;;;;;8407532;28;20036;-44
2023/05/24 09:43:50;;;;;;;2.53;2.22;;;20.30;57.90;;;;;;8425801;28;20028;-44
2023/05/24 09:47:51;;;;;;;2.30;1.88;;;20.30;57.90;;;;;;8425551;28;20035;-45
2023/05/24 09:51:52;;;;;;;2.67;2.28;;;20.30;57.90;;;;;;8425840;28;20056;-45
2023/05/24 09:55:53;;;;;;;1.92;1.73;;;20.30;57.90;;;;;;8425472;28;20481;-45
2023/05/24 09:59:55;;;;;;;2.28;1.90;;;20.30;57.90;;;;;;8425416;28;20055;-45
2023/05/24 10:03:58;;;;;;;2.63;2.25;;;20.40;57.80;;;;;;8425175;28;20090;-45
2023/05/24 10:08:00;;;;;;;2.63;2.08;;;20.30;57.80;;;;;;8425246;28;20063;-44
2023/05/24 10:12:05;;;;;;;2.40;2.20;;;20.30;57.80;;;;;;8427255;28;20032;-45
2023/05/24 10:16:07;;;;;;;2.95;2.00;;;20.30;57.80;;;;;;8431433;28;20040;-46
2023/05/24 10:20:11;;;;;;;3.13;2.08;;;20.30;57.80;;;;;;8431273;28;20085;-45
2023/05/24 10:24:16;;;;;;;3.63;2.05;;;20.40;57.70;;;;;;8430957;28;20385;-44
2023/05/24 10:28:18;;;;;;;3.35;1.92;;;20.40;57.70;;;;;;8430712;28;20032;-45
2023/05/24 10:32:21;;;;;;;2.53;2.25;;;20.40;57.60;;;;;;8430816;28;20039;-44
2023/05/24 10:36:24;;;;;;;2.88;2.30;;;20.40;57.60;;;;;;8446280;28;20040;-44
2023/05/24 10:40:25;;;;;;;2.95;2.35;;;20.50;57.60;;;;;;8430367;28;20062;-45
2023/05/24 10:44:29;;;;;;;2.65;2.20;;;20.40;57.60;;;;;;8430250;28;20055;-45
2023/05/24 10:48:35;;;;;;;2.80;1.75;;;20.40;57.60;;;;;;8430228;28;20035;-45
2023/05/24 10:52:36;;;;;;;2.35;2.10;;;20.30;57.70;;;;;;8430173;28;20017;-44
2023/05/24 10:56:41;;;;;;;2.67;1.98;;;20.30;57.80;;;;;;8429947;28;20086;-44
2023/05/24 11:00:43;;;;;;;2.80;2.13;;;20.30;57.80;;;;;;8429663;28;20447;-44
2023/05/24 11:04:48;;;;;;;;;;;20.30;57.80;;;;;;8430237;28;20048;-45
2023/05/24 11:08:48;;;;;;;2.35;1.80;;;20.30;57.90;;;;;;8429762;28;20379;-44
2023/05/24 11:12:59;;;;;;;2.55;2.15;;;20.30;57.90;;;;;;8429740;28;20350;-44
2023/05/24 11:17:00;;;;;;;2.50;2.00;;;20.30;57.90;;;;;;8429383;28;20119;-45
2023/05/24 11:21:02;;;;;;;2.17;1.60;;;20.30;57.90;;;;;;8429330;28;20044;-45
2023/05/24 11:25:07;;;;;;;2.15;1.90;;;20.30;57.90;;;;;;8429387;28;20034;-44
2023/05/24 11:29:08;;;;;;;2.47;2.08;;;20.30;57.90;;;;;;8428914;28;20039;-44
2023/05/24 11:33:17;;;;;;;2.72;2.03;;;20.30;57.80;;;;;;8429143;28;20073;-45
2023/05/24 11:37:18;;;;;;;2.30;1.73;;;20.30;57.90;;;;;;8428889;28;20032;-44
2023/05/24 11:41:19;;;;;;;2.53;1.83;;;20.30;57.80;;;;;;8428642;28;20020;-44
2023/05/24 11:45:20;;;;;;;2.70;2.00;;;20.30;57.80;;;;;;8428288;28;20490;-45
2023/05/24 11:49:21;;;;;;;3.33;1.73;;;20.30;57.80;;;;;;8410360;28;20497;-44
2023/05/24 11:53:22;;;;;;;2.10;1.90;;;20.30;57.70;;;;;;8428503;28;20463;-44
2023/05/24 11:57:41;;;;;;;2.08;1.80;;;20.30;57.70;;;;;;8409865;28;20433;-45
2023/05/24 12:01:42;;;;;;;2.67;2.10;;;20.30;57.70;;;;;;8443591;28;20024;-45
2023/05/24 12:05:43;;;;;;;;;;;20.30;57.70;;;;;;8428176;28;20047;-45
2023/05/24 12:09:43;;;;;;;2.03;1.70;;;20.40;57.70;;;;;;8427782;28;19904;-44
2023/05/24 12:13:44;;;;;;;1.88;1.42;;;20.40;57.50;;;;;;8427579;28;20032;-44
2023/05/24 12:17:49;;;;;;;1.77;1.63;;;20.40;57.50;;;;;;8409596;28;20032;-45
2023/05/24 12:21:50;;;;;;;2.10;1.90;;;20.40;57.40;;;;;;8427493;28;20446;-44
2023/05/24 12:26:00;;;;;;;1.88;1.67;;;20.50;57.50;;;;;;8443012;28;20119;-43
2023/05/24 12:30:08;;;;;;;2.40;1.77;;;20.40;57.50;;;;;;8409082;28;20039;-45
2023/05/24 12:34:14;;;;;;;2.10;1.85;;;20.40;57.60;;;;;;8426452;28;20081;-45
2023/05/24 12:38:23;;;;;;;2.28;1.88;;;20.30;57.60;;;;;;8426921;28;20035;-45
2023/05/24 12:42:25;;;;;;;2.53;1.92;;;20.30;57.70;;;;;;8426925;28;20031;-45
2023/05/24 12:46:26;;;;;;;1.85;1.58;;;20.30;57.70;;;;;;8426697;28;20526;-45
2023/05/24 12:50:27;;;;;;;2.25;1.70;;;20.30;57.80;;;;;;8426666;28;20062;-45
2023/05/24 12:54:28;;;;;;;2.10;1.55;;;20.30;57.80;;;;;;8426933;28;20028;-44
2023/05/24 12:58:29;;;;;;;1.63;1.40;;;20.30;57.80;;;;;;8426487;28;20036;-45
2023/05/24 13:02:30;;;;;;;2.15;1.80;;;20.30;57.90;;;;;;8426576;28;20038;-45
2023/05/24 13:06:30;;;;;;;1.88;1.70;;;20.30;57.90;;;;;;8408166;28;20055;-44
2023/05/24 13:10:31;;;;;;;1.88;1.63;;;20.30;57.90;;;;;;8426429;28;20136;-44
2023/05/24 13:14:32;;;;;;;2.00;1.70;;;20.30;57.90;;;;;;8408185;28;20032;-45
2023/05/24 13:18:33;;;;;;;1.80;1.58;;;20.30;57.80;;;;;;8439688;28;20293;-44
2023/05/24 13:22:34;;;;;;;2.53;1.95;;;20.30;57.80;;;;;;8451047;28;20034;-45
2023/05/24 13:26:36;;;;;;;2.25;1.77;;;20.30;57.90;;;;;;8435626;28;20495;-45
2023/05/24 13:30:37;;;;;;;4.03;1.80;;;20.30;58.10;;;;;;8467651;28;20032;-46
2023/05/24 13:34:38;;;;;;;1.92;1.70;;;20.30;58.40;;;;;;8460691;28;20039;-44
2023/05/24 13:38:39;;;;;;;1.85;1.60;;;20.40;58.40;;;;;;8471859;28;20492;-46
2023/05/24 13:42:40;;;;;;;3.83;1.50;;;20.40;58.40;;;;;;8460231;28;20043;-45
2023/05/24 13:46:41;;;;;;;6.35;1.73;;;20.40;58.40;;;;;;8461815;28;20063;-44
2023/05/24 13:50:43;;;;;;;2.97;1.65;;;20.50;58.50;;;;;;8439882;28;20028;-46
2023/05/24 13:54:44;;;;;;;4.93;1.73;;;20.50;58.40;;;;;;8434595;27;20503;-45
2023/05/24 13:58:45;;;;;;;1.40;1.25;;;20.50;58.10;;;;;;8432608;28;20060;-45
2023/05/24 14:02:46;;;;;;;3.35;1.50;;;20.40;58.50;;;;;;8432530;28;20040;-45
2023/05/24 14:06:46;;;;;;;3.05;1.95;;;20.50;58.40;;;;;;8398872;28;20040;-44
2023/05/24 14:10:48;;;;;;;3.30;2.00;;;20.40;58.20;;;;;;8398774;28;20025;-44
2023/05/24 14:14:49;;;;;;;5.15;1.80;;;20.50;58.30;;;;;;8398508;28;20290;-44
2023/05/24 14:18:50;;;;;;;3.42;1.73;;;20.40;58.10;;;;;;8398223;28;20040;-44
2023/05/24 14:22:51;;;;;;;5.18;1.80;;;20.40;58.20;;;;;;8398018;28;20488;-44
2023/05/24 14:26:52;;;;;;;7.72;1.48;;;20.40;58.30;;;;;;8397422;28;20047;-45
2023/05/24 14:30:52;;;;;;;5.68;2.03;;;20.40;58.30;;;;;;8397382;28;20446;-44
2023/05/24 14:34:53;;;;;;;3.13;1.85;;;20.40;58.40;;;;;;8397274;28;20398;-43
2023/05/24 14:38:54;;;;;;;5.28;1.83;;;20.30;58.40;;;;;;8397289;28;20068;-44
2023/05/24 14:42:54;;;;;;;2.00;1.70;;;20.30;58.40;;;;;;8396832;28;20037;-44
2023/05/24 14:46:55;;;;;;;3.60;1.60;;;20.30;58.40;;;;;;8396935;28;20474;-44
2023/05/24 14:50:56;;;;;;;1.65;1.50;;;20.30;58.60;;;;;;8397014;28;20094;-44
2023/05/24 14:54:56;;;;;;;4.78;1.77;;;20.30;58.50;;;;;;8396865;28;20044;-44
2023/05/24 14:58:57;;;;;;;5.65;1.73;;;20.30;58.50;;;;;;8396101;28;20040;-44
2023/05/24 15:02:58;;;;;;;2.03;1.77;;;20.30;58.50;;;;;;8398109;28;20045;-44
2023/05/24 15:06:58;;;;;;;2.10;1.35;;;20.30;58.30;;;;;;8429478;28;20089;-45
2023/05/24 15:10:59;;;;;;;1.90;1.52;;;20.40;58.30;;;;;;8429859;28;20442;-46
2023/05/24 15:15:00;;;;;;;2.05;1.48;;;20.40;58.30;;;;;;8429350;28;20032;-46
2023/05/24 15:19:01;;;;;;;2.67;1.90;;;20.40;58.30;;;;;;8429360;28;20442;-44
2023/05/24 15:23:02;;;;;;;2.85;1.38;;;20.50;58.30;;;;;;8429262;28;20040;-45
2023/05/24 15:27:03;;;;;;;4.70;1.50;;;20.50;58.10;;;;;;8429003;28;20032;-45
2023/05/24 15:31:04;;;;;;;2.78;1.60;;;20.50;58.20;;;;;;8410677;28;20028;-45
2023/05/24 15:35:05;;;;;;;3.25;1.90;;;20.40;58.10;;;;;;8428899;28;20074;-44
2023/05/24 15:39:06;;;;;;;4.45;1.88;;;20.50;58.00;;;;;;8428689;28;20059;-45
2023/05/24 15:43:06;;;;;;;2.60;1.50;;;20.50;58.00;;;;;;8428431;28;20131;-45
2023/05/24 15:47:07;;;;;;;1.87;1.30;;;20.50;57.90;;;;;;8428487;28;20373;-44
2023/05/24 15:51:08;;;;;;;3.85;1.33;;;20.50;57.80;;;;;;8428345;28;20306;-44
2023/05/24 15:55:09;;;;;;;3.47;1.30;;;20.50;57.70;;;;;;8428577;28;20039;-44
2023/05/24 15:59:09;;;;;;;2.90;1.33;;;20.60;57.60;;;;;;8428140;28;20118;-44
2023/05/24 16:03:14;;;;;;;1.58;1.40;;;20.60;57.60;;;;;;8428148;28;20489;-45
2023/05/24 16:07:14;;;;;;;2.17;1.40;;;20.60;57.70;;;;;;8427868;28;20043;-45
2023/05/24 16:11:15;;;;;;;2.78;1.60;;;20.50;57.70;;;;;;8427169;28;20032;-44
2023/05/24 16:15:16;;;;;;;1.30;1.20;;;20.50;57.80;;;;;;8427476;28;20123;-44
2023/05/24 16:19:17;;;;;;;1.73;1.45;;;20.50;58.00;;;;;;8427562;28;20058;-44
2023/05/24 16:23:18;;;;;;;2.78;2.00;;;20.40;58.00;;;;;;8427498;28;20036;-44
2023/05/24 16:27:19;;;;;;;6.82;3.22;;;20.40;57.70;;;;;;8427227;28;20077;-45
2023/05/24 16:31:20;;;;;;;7.82;3.38;;;20.40;57.30;;;;;;8427092;28;20081;-45
2023/05/24 16:35:20;;;;;;;14.15;3.40;;;20.50;56.70;;;;;;8427083;28;20689;-45
2023/05/24 16:39:22;;;;;;;5.90;3.33;;;20.50;56.50;;;;;;8426978;28;20066;-45
2023/05/24 16:43:22;;;;;;;8.02;3.05;;;20.50;56.60;;;;;;8426717;28;20451;-45
2023/05/24 16:47:23;;;;;;;5.47;2.90;;;20.50;56.50;;;;;;8426879;28;20101;-45
2023/05/24 16:51:24;;;;;;;6.57;3.17;;;20.50;56.60;;;;;;8426704;28;20043;-45
2023/05/24 16:55:24;;;;;;;6.25;2.72;;;20.60;56.70;;;;;;8427041;28;20096;-45
2023/05/24 16:59:25;;;;;;;3.80;2.30;;;20.50;56.80;;;;;;8442066;28;20429;-45
2023/05/24 17:03:26;;;;;;;3.60;2.93;;;20.50;57.00;;;;;;8426228;28;20329;-45
2023/05/24 17:07:27;;;;;;;;;;;20.50;57.10;;;;;;8426756;28;20285;-45
2023/05/24 17:11:28;;;;;;;5.70;3.33;;;20.40;57.10;;;;;;8426844;28;19908;-45
2023/05/24 17:15:28;;;;;;;5.68;2.47;;;20.40;57.10;;;;;;8426131;28;20103;-45
2023/05/24 17:19:29;;;;;;;3.80;2.45;;;20.50;57.00;;;;;;8426190;28;20344;-45
2023/05/24 17:23:32;;;;;;;3.38;2.60;;;20.50;57.10;;;;;;8432867;28;20028;-45
2023/05/24 17:27:33;;;;;;;4.18;2.28;;;20.50;57.20;;;;;;8432915;28;20028;-45
2023/05/24 17:31:33;;;;;;;2.95;2.08;;;20.40;57.10;;;;;;8432712;28;20042;-45
2023/05/24 17:35:34;;;;;;;3.72;2.28;;;20.40;57.20;;;;;;8432603;28;20032;-45
2023/05/24 17:39:35;;;;;;;2.40;2.17;;;20.40;57.20;;;;;;8432582;28;20039;-45
2023/05/24 17:43:37;;;;;;;11.10;3.50;;;20.40;57.40;;;;;;8432350;28;20028;-45
2023/05/24 17:47:38;;;;;;;3.15;2.40;;;20.40;57.40;;;;;;8432247;28;20031;-45
2023/05/24 17:51:39;;;;;;;3.17;2.25;;;20.30;57.40;;;;;;8432128;28;20020;-44
2023/05/24 17:55:39;;;;;;;4.15;2.30;;;20.30;57.40;;;;;;8432251;28;20032;-45
2023/05/24 17:59:40;;;;;;;2.27;2.07;;;20.30;57.50;;;;;;8432034;28;20036;-44
2023/05/24 18:03:41;;;;;;;3.63;2.70;;;20.30;57.50;;;;;;8430635;28;20889;-45
2023/05/24 18:07:42;;;;;;;5.65;2.30;;;20.30;57.60;;;;;;8431705;28;20290;-44
2023/05/24 18:11:42;;;;;;;2.60;2.23;;;20.30;57.60;;;;;;8431686;28;20036;-45
2023/05/24 18:15:43;;;;;;;3.77;2.20;;;20.30;57.60;;;;;;8431612;28;20703;-44
2023/05/24 18:19:44;;;;;;;3.38;2.30;;;20.30;57.60;;;;;;8431293;28;20082;-44
2023/05/24 18:23:44;;;;;;;2.30;2.10;;;20.30;57.60;;;;;;8431357;28;20031;-44
2023/05/24 18:27:45;;;;;;;2.58;2.08;;;20.30;57.60;;;;;;8431065;28;20024;-44
2023/05/24 18:31:45;;;;;;;4.03;2.03;;;20.30;57.60;;;;;;8430154;28;20032;-44
2023/05/24 18:35:46;;;;;;;2.65;2.03;;;20.30;57.60;;;;;;8430730;28;20282;-44
2023/05/24 18:39:47;;;;;;;4.27;1.97;;;20.30;57.50;;;;;;8431060;28;20035;-44
2023/05/24 18:43:48;;;;;;;2.65;2.10;;;20.40;57.40;;;;;;8430495;28;20286;-44
2023/05/24 18:47:48;;;;;;;2.47;2.20;;;20.40;57.30;;;;;;8437909;27;20030;-44
2023/05/24 18:51:49;;;;;;;3.35;2.80;;;20.50;57.40;;;;;;8475140;27;20023;-44
2023/05/24 18:55:49;;;;;;;2.80;2.22;;;20.50;58.80;;;;;;8456867;28;20511;-46
2023/05/24 18:59:50;;;;;;;2.47;1.88;;;20.50;58.50;;;;;;8499900;27;20032;-47
2023/05/24 19:03:51;;;;;;;3.53;2.25;;;20.50;58.10;;;;;;8500689;27;20055;-45
2023/05/24 19:07:52;;;;;;;3.53;1.85;;;20.60;57.60;;;;;;8471936;27;20102;-46
2023/05/24 19:11:56;;;;;;;5.95;2.38;;;20.60;57.60;;;;;;8466574;28;20040;-48
2023/05/24 19:15:59;;;;;;;6.03;2.17;;;20.60;58.00;;;;;;8466090;28;20041;-47
2023/05/24 19:20:00;;;;;;;4.35;2.22;;;20.70;57.80;;;;;;8444648;28;20082;-46
2023/05/24 19:24:01;;;;;;;4.60;2.33;;;20.70;57.90;;;;;;8435258;27;20032;-44
2023/05/24 19:28:02;;;;;;;3.37;2.00;;;20.70;57.90;;;;;;8432122;28;20028;-46
2023/05/24 19:32:02;;;;;;;11.80;2.37;;;20.70;57.70;;;;;;8432097;28;20278;-46
2023/05/24 19:36:03;;;;;;;10.93;2.35;;;20.80;57.60;;;;;;8431909;28;20784;-46
2023/05/24 19:40:05;;;;;;;5.30;2.35;;;20.80;57.60;;;;;;8431884;28;20034;-46
2023/05/24 19:44:06;;;;;;;9.55;2.10;;;20.80;57.70;;;;;;8430588;28;20036;-46
2023/05/24 19:48:08;;;;;;;3.88;2.22;;;20.80;57.70;;;;;;8436703;28;20023;-47
2023/05/24 19:52:09;;;;;;;3.88;2.28;;;20.80;57.70;;;;;;8461909;28;20392;-47
2023/05/24 19:56:10;;;;;;;5.50;2.10;;;20.80;57.60;;;;;;8431357;28;20036;-47
2023/05/24 20:00:12;;;;;;;8.05;2.42;;;20.80;57.40;;;;;;8431190;28;20047;-46
2023/05/24 20:04:13;;;;;;;5.70;2.38;;;20.90;57.50;;;;;;8430919;28;20186;-46
2023/05/24 20:08:15;;;;;;;7.40;2.30;;;20.80;57.50;;;;;;8430928;28;20024;-47
2023/05/24 20:12:16;;;;;;;5.85;2.15;;;20.80;57.70;;;;;;8430729;28;20024;-48
2023/05/24 20:16:17;;;;;;;6.10;2.38;;;20.80;57.60;;;;;;8430584;28;20122;-47
2023/05/24 20:20:18;;;;;;;10.80;2.22;;;20.80;57.60;;;;;;8453920;28;20031;-46
2023/05/24 20:24:18;;;;;;;4.93;2.20;;;20.80;57.80;;;;;;8477483;27;20039;-47
2023/05/24 20:28:19;;;;;;;5.65;3.00;;;20.80;57.50;;;;;;8498071;27;20027;-47
2023/05/24 20:32:20;;;;;;;6.90;2.28;;;20.90;57.40;;;;;;8497854;27;20049;-47
2023/05/24 20:36:21;;;;;;;5.93;2.10;;;20.80;57.50;;;;;;8497763;27;20033;-47
2023/05/24 20:40:23;;;;;;;3.55;2.22;;;20.80;57.60;;;;;;8479372;27;20068;-47
2023/05/24 20:44:24;;;;;;;9.93;2.33;;;20.80;57.60;;;;;;8497489;27;20488;-47
2023/05/24 20:48:25;;;;;;;3.95;1.88;;;20.90;57.40;;;;;;8489695;27;20388;-47
2023/05/24 20:52:25;;;;;;;3.78;1.80;;;20.80;57.40;;;;;;8439499;28;20044;-47
2023/05/24 20:56:26;;;;;;;5.38;2.08;;;20.80;57.90;;;;;;8429447;28;20032;-46
2023/05/24 21:00:27;;;;;;;9.82;2.88;;;20.80;59.20;;;;;;8429453;28;20029;-46
2023/05/24 21:04:27;;;;;;;8.70;3.57;;;20.90;58.90;;;;;;8429279;28;20051;-44